sensor_id;sensor_type;location;lat;lon;timestamp;P1;durP1;ratioP1;P2;durP2;ratioP2
72621;SDS011;60665;53.506;9.582;2023-02-17T05:00:28;32.03;;;13.60;;
72621;SDS011;60665;53.506;9.582;2023-02-17T05:02:54;38.22;;;16.63;;
72621;SDS011;60665;53.506;9.582;2023-02-17T05:05:19;40.78;;;16.77;;
72621;SDS011;60665;53.506;9.582;2023-02-17T05:07:45;41.58;;;17.45;;
72621;SDS011;60665;53.506;9.582;2023-02-17T05:10:11;41.83;;;17.98;;
72621;SDS011;60665;53.506;9.582;2023-02-17T05:12:37;40.03;;;16.58;;
72621;SDS011;60665;53.506;9.582;2023-02-17T05:15:04;41.05;;;17.50;;
72621;SDS011;60665;53.506;9.582;2023-02-17T05:17:30;41.30;;;17.70;;
72621;SDS011;60665;53.506;9.582;2023-02-17T05:19:55;36.53;;;17.02;;
72621;SDS011;60665;53.506;9.582;2023-02-17T05:22:20;38.70;;;17.05;;
72621;SDS011;60665;53.506;9.582;2023-02-17T05:24:46;67.53;;;17.67;;
72621;SDS011;60665;53.506;9.582;2023-02-17T05:27:11;34.22;;;16.45;;
72621;SDS011;60665;53.506;9.582;2023-02-17T05:29:37;33.38;;;16.25;;
72621;SDS011;60665;53.506;9.582;2023-02-17T05:32:02;35.40;;;17.40;;
72621;SDS011;60665;53.506;9.582;2023-02-17T05:34:27;35.72;;;17.42;;
72621;SDS011;60665;53.506;9.582;2023-02-17T05:36:53;31.42;;;16.08;;
72621;SDS011;60665;53.506;9.582;2023-02-17T05:39:18;35.03;;;16.00;;
72621;SDS011;60665;53.506;9.582;2023-02-17T05:41:44;34.90;;;17.20;;
72621;SDS011;60665;53.506;9.582;2023-02-17T05:44:09;33.53;;;16.10;;
72621;SDS011;60665;53.506;9.582;2023-02-17T05:46:34;32.30;;;16.77;;
72621;SDS011;60665;53.506;9.582;2023-02-17T05:49:00;33.20;;;16.08;;
72621;SDS011;60665;53.506;9.582;2023-02-17T05:51:25;33.13;;;16.63;;
72621;SDS011;60665;53.506;9.582;2023-02-17T05:53:51;32.13;;;15.88;;
72621;SDS011;60665;53.506;9.582;2023-02-17T05:56:16;32.92;;;16.60;;
72621;SDS011;60665;53.506;9.582;2023-02-17T05:58:41;32.20;;;15.20;;
72621;SDS011;60665;53.506;9.582;2023-02-17T06:01:10;32.40;;;15.60;;
72621;SDS011;60665;53.506;9.582;2023-02-17T06:03:36;36.13;;;17.67;;
72621;SDS011;60665;53.506;9.582;2023-02-17T06:06:01;33.33;;;15.82;;
72621;SDS011;60665;53.506;9.582;2023-02-17T06:08:27;39.33;;;18.23;;
72621;SDS011;60665;53.506;9.582;2023-02-17T06:10:53;35.75;;;17.77;;
72621;SDS011;60665;53.506;9.582;2023-02-17T06:13:18;34.67;;;17.80;;
72621;SDS011;60665;53.506;9.582;2023-02-17T06:15:44;42.55;;;19.30;;
72621;SDS011;60665;53.506;9.582;2023-02-17T06:18:10;39.72;;;19.35;;
72621;SDS011;60665;53.506;9.582;2023-02-17T06:20:36;39.53;;;19.80;;
72621;SDS011;60665;53.506;9.582;2023-02-17T06:23:01;42.25;;;20.38;;
72621;SDS011;60665;53.506;9.582;2023-02-17T06:25:26;38.92;;;19.23;;
72621;SDS011;60665;53.506;9.582;2023-02-17T06:27:52;43.55;;;20.17;;
72621;SDS011;60665;53.506;9.582;2023-02-17T06:30:17;38.90;;;19.05;;
72621;SDS011;60665;53.506;9.582;2023-02-17T06:32:44;42.13;;;19.73;;
72621;SDS011;60665;53.506;9.582;2023-02-17T06:35:09;37.42;;;18.17;;
72621;SDS011;60665;53.506;9.582;2023-02-17T06:37:34;38.70;;;18.83;;
72621;SDS011;60665;53.506;9.582;2023-02-17T06:40:00;39.70;;;18.88;;
72621;SDS011;60665;53.506;9.582;2023-02-17T06:42:25;38.42;;;19.08;;
72621;SDS011;60665;53.506;9.582;2023-02-17T06:44:51;39.72;;;19.02;;
72621;SDS011;60665;53.506;9.582;2023-02-17T06:47:16;38.38;;;19.30;;
72621;SDS011;60665;53.506;9.582;2023-02-17T06:49:42;35.90;;;18.05;;
72621;SDS011;60665;53.506;9.582;2023-02-17T06:52:07;36.90;;;18.17;;
72621;SDS011;60665;53.506;9.582;2023-02-17T06:54:32;42.25;;;18.92;;
72621;SDS011;60665;53.506;9.582;2023-02-17T06:56:58;38.67;;;18.17;;
72621;SDS011;60665;53.506;9.582;2023-02-17T06:59:23;38.55;;;18.10;;
72621;SDS011;60665;53.506;9.582;2023-02-17T07:01:49;37.15;;;18.40;;
72621;SDS011;60665;53.506;9.582;2023-02-17T07:04:14;39.65;;;18.27;;
72621;SDS011;60665;53.506;9.582;2023-02-17T07:06:40;39.50;;;17.67;;
72621;SDS011;60665;53.506;9.582;2023-02-17T16:30:22;18.20;;;3.88;;
72621;SDS011;60665;53.506;9.582;2023-02-17T16:32:50;15.65;;;3.85;;
72621;SDS011;60665;53.506;9.582;2023-02-17T16:35:17;19.65;;;2.40;;
72621;SDS011;60665;53.506;9.582;2023-02-17T16:37:47;15.90;;;2.70;;
72621;SDS011;60665;53.506;9.582;2023-02-17T16:40:16;25.85;;;3.08;;
72621;SDS011;60665;53.506;9.582;2023-02-17T16:42:43;21.52;;;3.70;;
72621;SDS011;60665;53.506;9.582;2023-02-17T16:45:16;17.15;;;2.42;;
72621;SDS011;60665;53.506;9.582;2023-02-17T16:47:43;18.48;;;3.58;;
72621;SDS011;60665;53.506;9.582;2023-02-17T16:50:12;19.33;;;3.08;;
72621;SDS011;60665;53.506;9.582;2023-02-17T16:52:42;21.08;;;2.83;;
72621;SDS011;60665;53.506;9.582;2023-02-17T16:55:09;14.02;;;2.03;;
72621;SDS011;60665;53.506;9.582;2023-02-17T16:57:39;18.08;;;2.10;;
72621;SDS011;60665;53.506;9.582;2023-02-17T17:00:05;16.65;;;2.83;;
72621;SDS011;60665;53.506;9.582;2023-02-17T17:02:31;20.38;;;2.50;;
72621;SDS011;60665;53.506;9.582;2023-02-17T17:04:57;16.23;;;2.47;;
72621;SDS011;60665;53.506;9.582;2023-02-17T17:07:23;12.45;;;2.33;;
72621;SDS011;60665;53.506;9.582;2023-02-17T17:09:48;19.05;;;2.80;;
72621;SDS011;60665;53.506;9.582;2023-02-17T17:12:13;15.70;;;1.95;;
72621;SDS011;60665;53.506;9.582;2023-02-17T17:14:39;13.27;;;1.67;;
72621;SDS011;60665;53.506;9.582;2023-02-17T17:17:04;21.10;;;2.10;;
72621;SDS011;60665;53.506;9.582;2023-02-17T17:19:30;13.77;;;2.00;;
72621;SDS011;60665;53.506;9.582;2023-02-17T17:21:55;19.80;;;2.60;;
72621;SDS011;60665;53.506;9.582;2023-02-17T17:24:20;20.77;;;2.45;;
72621;SDS011;60665;53.506;9.582;2023-02-17T17:26:47;18.65;;;2.42;;
72621;SDS011;60665;53.506;9.582;2023-02-17T17:29:14;22.65;;;2.25;;
72621;SDS011;60665;53.506;9.582;2023-02-17T17:31:41;16.15;;;2.08;;
72621;SDS011;60665;53.506;9.582;2023-02-17T17:34:06;20.27;;;2.55;;
72621;SDS011;60665;53.506;9.582;2023-02-17T17:36:33;13.75;;;2.53;;
72621;SDS011;60665;53.506;9.582;2023-02-17T17:39:03;19.55;;;2.38;;
72621;SDS011;60665;53.506;9.582;2023-02-17T17:41:31;19.15;;;2.70;;
72621;SDS011;60665;53.506;9.582;2023-02-17T17:43:56;16.67;;;2.58;;
72621;SDS011;60665;53.506;9.582;2023-02-17T17:46:29;16.08;;;2.10;;
72621;SDS011;60665;53.506;9.582;2023-02-17T17:48:59;23.25;;;2.83;;
72621;SDS011;60665;53.506;9.582;2023-02-17T17:51:26;13.15;;;2.42;;
72621;SDS011;60665;53.506;9.582;2023-02-17T17:53:52;14.73;;;2.15;;
72621;SDS011;60665;53.506;9.582;2023-02-17T17:58:48;16.52;;;2.50;;
72621;SDS011;60665;53.506;9.582;2023-02-17T18:01:14;12.45;;;2.05;;
72621;SDS011;60665;53.506;9.582;2023-02-17T18:03:40;24.42;;;3.10;;
72621;SDS011;60665;53.506;9.582;2023-02-17T18:06:07;19.52;;;3.70;;
72621;SDS011;60665;53.506;9.582;2023-02-17T18:08:35;17.90;;;2.75;;
72621;SDS011;60665;53.506;9.582;2023-02-17T18:11:01;20.75;;;2.85;;
72621;SDS011;60665;53.506;9.582;2023-02-17T18:13:27;14.48;;;1.98;;
72621;SDS011;60665;53.506;9.582;2023-02-17T18:15:52;16.30;;;1.95;;
72621;SDS011;60665;53.506;9.582;2023-02-17T18:18:18;18.50;;;2.90;;
72621;SDS011;60665;53.506;9.582;2023-02-17T18:20:43;18.08;;;2.28;;
72621;SDS011;60665;53.506;9.582;2023-02-17T18:23:09;17.10;;;2.10;;
72621;SDS011;60665;53.506;9.582;2023-02-17T18:25:34;16.30;;;2.28;;
72621;SDS011;60665;53.506;9.582;2023-02-17T18:28:00;19.00;;;2.38;;
72621;SDS011;60665;53.506;9.582;2023-02-17T18:30:25;20.10;;;3.13;;
72621;SDS011;60665;53.506;9.582;2023-02-17T18:32:51;18.80;;;2.55;;
72621;SDS011;60665;53.506;9.582;2023-02-17T18:35:17;20.33;;;2.42;;
72621;SDS011;60665;53.506;9.582;2023-02-17T18:37:43;17.20;;;2.20;;
72621;SDS011;60665;53.506;9.582;2023-02-17T18:40:09;20.10;;;2.55;;
72621;SDS011;60665;53.506;9.582;2023-02-17T18:42:36;16.13;;;3.05;;
72621;SDS011;60665;53.506;9.582;2023-02-17T18:45:02;14.82;;;2.17;;
72621;SDS011;60665;53.506;9.582;2023-02-17T18:47:28;13.13;;;2.20;;
72621;SDS011;60665;53.506;9.582;2023-02-17T18:49:54;23.73;;;2.80;;
72621;SDS011;60665;53.506;9.582;2023-02-17T18:52:19;12.30;;;2.13;;
72621;SDS011;60665;53.506;9.582;2023-02-17T18:54:45;16.83;;;1.90;;
72621;SDS011;60665;53.506;9.582;2023-02-17T18:57:13;13.05;;;2.22;;
72621;SDS011;60665;53.506;9.582;2023-02-17T18:59:38;16.40;;;2.00;;
72621;SDS011;60665;53.506;9.582;2023-02-17T19:02:05;16.05;;;2.22;;
72621;SDS011;60665;53.506;9.582;2023-02-17T19:04:31;16.83;;;2.42;;
72621;SDS011;60665;53.506;9.582;2023-02-17T19:06:56;17.35;;;2.60;;
72621;SDS011;60665;53.506;9.582;2023-02-17T19:09:29;12.85;;;2.05;;
72621;SDS011;60665;53.506;9.582;2023-02-17T19:11:56;20.20;;;2.60;;
72621;SDS011;60665;53.506;9.582;2023-02-17T19:14:21;16.00;;;2.88;;
72621;SDS011;60665;53.506;9.582;2023-02-17T19:16:46;18.33;;;2.63;;
72621;SDS011;60665;53.506;9.582;2023-02-17T19:19:12;21.15;;;2.50;;
72621;SDS011;60665;53.506;9.582;2023-02-17T19:21:37;17.20;;;3.08;;
72621;SDS011;60665;53.506;9.582;2023-02-17T19:24:03;20.23;;;2.10;;
72621;SDS011;60665;53.506;9.582;2023-02-17T19:26:28;17.10;;;3.28;;
72621;SDS011;60665;53.506;9.582;2023-02-17T19:28:54;18.45;;;2.25;;
72621;SDS011;60665;53.506;9.582;2023-02-17T19:31:19;19.70;;;2.45;;
72621;SDS011;60665;53.506;9.582;2023-02-17T19:33:45;16.27;;;2.15;;
72621;SDS011;60665;53.506;9.582;2023-02-17T19:36:12;24.40;;;3.03;;
72621;SDS011;60665;53.506;9.582;2023-02-17T19:38:41;17.38;;;2.45;;
72621;SDS011;60665;53.506;9.582;2023-02-17T19:41:08;15.60;;;2.33;;
72621;SDS011;60665;53.506;9.582;2023-02-17T19:43:34;18.13;;;2.08;;
72621;SDS011;60665;53.506;9.582;2023-02-17T19:45:59;19.90;;;2.38;;
72621;SDS011;60665;53.506;9.582;2023-02-17T19:48:25;16.13;;;2.60;;
72621;SDS011;60665;53.506;9.582;2023-02-17T19:50:50;16.70;;;2.28;;
72621;SDS011;60665;53.506;9.582;2023-02-17T19:53:16;25.10;;;2.58;;
72621;SDS011;60665;53.506;9.582;2023-02-17T19:55:42;17.88;;;2.80;;
72621;SDS011;60665;53.506;9.582;2023-02-17T19:58:07;17.73;;;2.67;;
72621;SDS011;60665;53.506;9.582;2023-02-17T20:00:33;20.48;;;2.38;;
72621;SDS011;60665;53.506;9.582;2023-02-17T20:02:59;20.88;;;2.70;;
72621;SDS011;60665;53.506;9.582;2023-02-17T20:05:24;19.33;;;2.45;;
72621;SDS011;60665;53.506;9.582;2023-02-17T20:07:49;26.23;;;2.45;;
72621;SDS011;60665;53.506;9.582;2023-02-17T20:10:15;25.25;;;2.72;;
72621;SDS011;60665;53.506;9.582;2023-02-17T20:12:41;15.45;;;2.08;;
72621;SDS011;60665;53.506;9.582;2023-02-17T20:15:06;25.05;;;3.05;;
72621;SDS011;60665;53.506;9.582;2023-02-17T20:17:32;18.58;;;2.45;;
72621;SDS011;60665;53.506;9.582;2023-02-17T20:19:57;25.50;;;2.70;;
72621;SDS011;60665;53.506;9.582;2023-02-17T20:22:23;16.08;;;2.55;;
72621;SDS011;60665;53.506;9.582;2023-02-17T20:24:49;21.92;;;2.28;;
72621;SDS011;60665;53.506;9.582;2023-02-17T20:27:15;14.95;;;2.05;;
72621;SDS011;60665;53.506;9.582;2023-02-17T20:29:40;16.40;;;2.42;;
72621;SDS011;60665;53.506;9.582;2023-02-17T20:32:05;15.13;;;2.00;;
72621;SDS011;60665;53.506;9.582;2023-02-17T20:34:33;28.60;;;2.90;;
72621;SDS011;60665;53.506;9.582;2023-02-17T20:37:01;18.92;;;3.05;;
72621;SDS011;60665;53.506;9.582;2023-02-17T20:39:27;14.23;;;2.38;;
72621;SDS011;60665;53.506;9.582;2023-02-17T20:41:53;25.63;;;3.15;;
72621;SDS011;60665;53.506;9.582;2023-02-17T20:44:19;12.90;;;2.13;;
72621;SDS011;60665;53.506;9.582;2023-02-17T20:46:44;19.25;;;3.03;;
72621;SDS011;60665;53.506;9.582;2023-02-17T20:49:10;16.33;;;2.30;;
72621;SDS011;60665;53.506;9.582;2023-02-17T20:51:36;18.63;;;2.30;;
72621;SDS011;60665;53.506;9.582;2023-02-17T20:54:01;19.13;;;2.58;;
72621;SDS011;60665;53.506;9.582;2023-02-17T20:56:30;17.30;;;3.58;;
72621;SDS011;60665;53.506;9.582;2023-02-17T20:58:58;16.20;;;2.67;;
72621;SDS011;60665;53.506;9.582;2023-02-17T21:01:23;16.77;;;1.92;;
72621;SDS011;60665;53.506;9.582;2023-02-17T21:03:49;15.00;;;2.13;;
72621;SDS011;60665;53.506;9.582;2023-02-17T21:08:49;16.98;;;2.30;;
72621;SDS011;60665;53.506;9.582;2023-02-17T21:11:16;10.90;;;2.05;;
72621;SDS011;60665;53.506;9.582;2023-02-17T21:13:42;18.60;;;3.03;;
72621;SDS011;60665;53.506;9.582;2023-02-17T21:16:10;16.20;;;2.22;;
72621;SDS011;60665;53.506;9.582;2023-02-17T21:18:36;15.73;;;1.90;;
72621;SDS011;60665;53.506;9.582;2023-02-17T21:21:02;16.35;;;2.20;;
72621;SDS011;60665;53.506;9.582;2023-02-17T21:23:27;23.75;;;2.42;;
72621;SDS011;60665;53.506;9.582;2023-02-17T21:25:52;16.10;;;2.30;;
72621;SDS011;60665;53.506;9.582;2023-02-17T21:28:18;17.33;;;2.13;;
72621;SDS011;60665;53.506;9.582;2023-02-17T21:30:46;21.38;;;2.20;;
72621;SDS011;60665;53.506;9.582;2023-02-17T21:33:11;13.95;;;1.83;;
72621;SDS011;60665;53.506;9.582;2023-02-17T21:35:37;16.17;;;1.85;;
